Aviation Digital Data Service (ADDS)

Output produced by METARs form (1405 UTC 19 January 2019)
found at http://www.aviationweather.gov/metar/data/
 
METAR text: LFRS 191400Z AUTO 26011KT 9999 FEW030 OVC094 12/06 Q1007 TEMPO 4000 SHRA BKN018CB BECMG 19006KT
Conditions at: LFRS (NANTES/CHATEAU B, FR) observed 1400 UTC 19 January 2019
Temperature: 12.0°C (54°F)
Dewpoint: 6.0°C (43°F) [RH = 67%]
Pressure (altimeter): 29.73 inches Hg (1007.0 mb)
Winds: from the W (260 degrees) at 13 MPH (11 knots; 5.7 m/s)
Visibility: 6 or more miles (10+ km)
Ceiling: 9400 feet AGL
Clouds: few clouds at 3000 feet AGL
overcast cloud deck at 9400 feet AGL
Weather: no significant weather observed at this time

METAR text: LFRS 191330Z AUTO 22009KT 190V250 9999 FEW026/// BKN096/// ///TCU 12/07 Q1007 TEMPO 4000 SHRA BKN018CB
Conditions at: LFRS (NANTES/CHATEAU B, FR) observed 1330 UTC 19 January 2019
Temperature: 12.0°C (54°F)
Dewpoint: 7.0°C (45°F) [RH = 71%]
Pressure (altimeter): 29.73 inches Hg (1007.0 mb)
Winds: from the SW (220 degrees) at 10 MPH (9 knots; 4.6 m/s)
Visibility: 6 or more miles (10+ km)
Ceiling: 9600 feet AGL
Clouds: few clouds at 2600 feet AGL
broken clouds at 9600 feet AGL
Weather: no significant weather observed at this time

METAR text: LFRS 191300Z AUTO 22009KT 190V250 9999 FEW019/// BKN025/// BKN034/// ///CB 12/08 Q1007 TEMPO 4000 SHRA
Conditions at: LFRS (NANTES/CHATEAU B, FR) observed 1300 UTC 19 January 2019
Temperature: 12.0°C (54°F)
Dewpoint: 8.0°C (46°F) [RH = 76%]
Pressure (altimeter): 29.73 inches Hg (1007.0 mb)
Winds: from the SW (220 degrees) at 10 MPH (9 knots; 4.6 m/s)
Visibility: 6 or more miles (10+ km)
Ceiling: 2500 feet AGL
Clouds: few clouds at 1900 feet AGL
broken clouds at 2500 feet AGL
broken clouds at 3400 feet AGL
Weather: no significant weather observed at this time

METAR text: LFRS 191230Z AUTO 22009KT 9999 SCT021/// ///TCU 12/08 Q1008 TEMPO 4000 SHRA
Conditions at: LFRS (NANTES/CHATEAU B, FR) observed 1230 UTC 19 January 2019
Temperature: 12.0°C (54°F)
Dewpoint: 8.0°C (46°F) [RH = 76%]
Pressure (altimeter): 29.76 inches Hg (1008.0 mb)
Winds: from the SW (220 degrees) at 10 MPH (9 knots; 4.6 m/s)
Visibility: 6 or more miles (10+ km)
Ceiling: at least 12,000 feet AGL
Clouds: scattered clouds at 2100 feet AGL
Weather: no significant weather observed at this time

METAR text: LFRS 191200Z AUTO 23005KT 9999 BKN021/// BKN027/// BKN058/// ///CB 12/09 Q1008 TEMPO 4000 SHRA
Conditions at: LFRS (NANTES/CHATEAU B, FR) observed 1200 UTC 19 January 2019
Temperature: 12.0°C (54°F)
Dewpoint: 9.0°C (48°F) [RH = 82%]
Pressure (altimeter): 29.76 inches Hg (1008.0 mb)
Winds: from the SW (230 degrees) at 6 MPH (5 knots; 2.6 m/s)
Visibility: 6 or more miles (10+ km)
Ceiling: 2100 feet AGL
Clouds: broken clouds at 2100 feet AGL
broken clouds at 2700 feet AGL
broken clouds at 5800 feet AGL
Weather: no significant weather observed at this time

METAR text: LFRS 191130Z AUTO 21007KT 9999 SCT029 BKN040 BKN050 10/09 Q1009 TEMPO 4000 SHRA BKN018TCU
Conditions at: LFRS (NANTES/CHATEAU B, FR) observed 1130 UTC 19 January 2019
Temperature: 10.0°C (50°F)
Dewpoint: 9.0°C (48°F) [RH = 93%]
Pressure (altimeter): 29.79 inches Hg (1009.0 mb)
Winds: from the SSW (210 degrees) at 8 MPH (7 knots; 3.6 m/s)
Visibility: 6 or more miles (10+ km)
Ceiling: 4000 feet AGL
Clouds: scattered clouds at 2900 feet AGL
broken clouds at 4000 feet AGL
broken clouds at 5000 feet AGL
Weather: no significant weather observed at this time

METAR text: LFRS 191100Z AUTO 19006KT 9999 SCT029 BKN080 10/09 Q1009 TEMPO 4000 SHRA BKN018TCU
Conditions at: LFRS (NANTES/CHATEAU B, FR) observed 1100 UTC 19 January 2019
Temperature: 10.0°C (50°F)
Dewpoint: 9.0°C (48°F) [RH = 93%]
Pressure (altimeter): 29.79 inches Hg (1009.0 mb)
Winds: from the S (190 degrees) at 7 MPH (6 knots; 3.1 m/s)
Visibility: 6 or more miles (10+ km)
Ceiling: 8000 feet AGL
Clouds: scattered clouds at 2900 feet AGL
broken clouds at 8000 feet AGL
Weather: no significant weather observed at this time

METAR text: LFRS 191030Z AUTO 18006KT 9999 ///TCU 08/08 Q1009 TEMPO 4000 SHRA
Conditions at: LFRS (NANTES/CHATEAU B, FR) observed 1030 UTC 19 January 2019
Temperature: 8.0°C (46°F)
Dewpoint: 8.0°C (46°F) [RH = 100%]
Pressure (altimeter): 29.79 inches Hg (1009.0 mb)
Winds: from the S (180 degrees) at 7 MPH (6 knots; 3.1 m/s)
Visibility: 6 or more miles (10+ km)
Ceiling: unknown
Clouds: missing
Weather: no significant weather observed at this time

METAR text: LFRS 191000Z AUTO 18006KT CAVOK 08/07 Q1009 TEMPO 4000 SHRA BKN018TCU
Conditions at: LFRS (NANTES/CHATEAU B, FR) observed 1000 UTC 19 January 2019
Temperature: 8.0°C (46°F)
Dewpoint: 7.0°C (45°F) [RH = 93%]
Pressure (altimeter): 29.79 inches Hg (1009.0 mb)
Winds: from the S (180 degrees) at 7 MPH (6 knots; 3.1 m/s)
Visibility: 6 or more miles (10+ km)
Ceiling: ceiling and visibility are OK
Clouds: unknown
Weather: no significant weather observed at this time

METAR text: LFRS 190930Z AUTO 19007KT CAVOK 07/07 Q1009 TEMPO 4000 SHRA BKN018TCU
Conditions at: LFRS (NANTES/CHATEAU B, FR) observed 0930 UTC 19 January 2019
Temperature: 7.0°C (45°F)
Dewpoint: 7.0°C (45°F) [RH = 100%]
Pressure (altimeter): 29.79 inches Hg (1009.0 mb)
Winds: from the S (190 degrees) at 8 MPH (7 knots; 3.6 m/s)
Visibility: 6 or more miles (10+ km)
Ceiling: ceiling and visibility are OK
Clouds: unknown
Weather: no significant weather observed at this time

METAR text: LFRS 190900Z AUTO 20006KT 9999 OVC048 06/06 Q1009 TEMPO 4000 SHRA BKN018TCU
Conditions at: LFRS (NANTES/CHATEAU B, FR) observed 0900 UTC 19 January 2019
Temperature: 6.0°C (43°F)
Dewpoint: 6.0°C (43°F) [RH = 100%]
Pressure (altimeter): 29.79 inches Hg (1009.0 mb)
Winds: from the SSW (200 degrees) at 7 MPH (6 knots; 3.1 m/s)
Visibility: 6 or more miles (10+ km)
Ceiling: 4800 feet AGL
Clouds: overcast cloud deck at 4800 feet AGL
Weather: no significant weather observed at this time

METAR text: LFRS 190830Z AUTO 19006KT 9999 FEW045/// BKN052/// BKN066/// ///TCU 06/06 Q1009 TEMPO 4000 SHRA
Conditions at: LFRS (NANTES/CHATEAU B, FR) observed 0830 UTC 19 January 2019
Temperature: 6.0°C (43°F)
Dewpoint: 6.0°C (43°F) [RH = 100%]
Pressure (altimeter): 29.79 inches Hg (1009.0 mb)
Winds: from the S (190 degrees) at 7 MPH (6 knots; 3.1 m/s)
Visibility: 6 or more miles (10+ km)
Ceiling: 5200 feet AGL
Clouds: few clouds at 4500 feet AGL
broken clouds at 5200 feet AGL
broken clouds at 6600 feet AGL
Weather: no significant weather observed at this time

METAR text: LFRS 190800Z AUTO 20006KT 170V240 9999 -RA FEW019/// SCT029/// BKN040/// ///TCU 06/06 Q1009 TEMPO 4000 SHRA
Conditions at: LFRS (NANTES/CHATEAU B, FR) observed 0800 UTC 19 January 2019
Temperature: 6.0°C (43°F)
Dewpoint: 6.0°C (43°F) [RH = 100%]
Pressure (altimeter): 29.79 inches Hg (1009.0 mb)
Winds: from the SSW (200 degrees) at 7 MPH (6 knots; 3.1 m/s)
Visibility: 6 or more miles (10+ km)
Ceiling: 4000 feet AGL
Clouds: few clouds at 1900 feet AGL
scattered clouds at 2900 feet AGL
broken clouds at 4000 feet AGL
Weather: -RA  (light rain)

METAR text: LFRS 190730Z AUTO 14004KT 6000 FEW006/// SCT029/// BKN035/// ///TCU 05/05 Q1009 TEMPO 4000 SHRA
Conditions at: LFRS (NANTES/CHATEAU B, FR) observed 0730 UTC 19 January 2019
Temperature: 5.0°C (41°F)
Dewpoint: 5.0°C (41°F) [RH = 100%]
Pressure (altimeter): 29.79 inches Hg (1009.0 mb)
Winds: from the SE (140 degrees) at 5 MPH (4 knots; 2.1 m/s)
Visibility: 4 miles ( 6 km)
Ceiling: 3500 feet AGL
Clouds: few clouds at 600 feet AGL
scattered clouds at 2900 feet AGL
broken clouds at 3500 feet AGL
Weather: no significant weather observed at this time

METAR text: LFRS 190700Z AUTO VRB02KT 4900 BR SCT025/// BKN036/// BKN050/// ///TCU 04/04 Q1009 TEMPO SHRA
Conditions at: LFRS (NANTES/CHATEAU B, FR) observed 0700 UTC 19 January 2019
Temperature: 4.0°C (39°F)
Dewpoint: 4.0°C (39°F) [RH = 100%]
Pressure (altimeter): 29.79 inches Hg (1009.0 mb)
Winds: variable direction winds at 2 MPH (2 knots; 1.0 m/s)
Visibility: 3 miles ( 5 km)
Ceiling: 3600 feet AGL
Clouds: scattered clouds at 2500 feet AGL
broken clouds at 3600 feet AGL
broken clouds at 5000 feet AGL
Weather: BR  (mist)

METAR text: LFRS 190630Z AUTO 17004KT 4200 BR FEW004/// SCT048/// OVC076/// ///TCU 04/04 Q1009 TEMPO SHRA
Conditions at: LFRS (NANTES/CHATEAU B, FR) observed 0630 UTC 19 January 2019
Temperature: 4.0°C (39°F)
Dewpoint: 4.0°C (39°F) [RH = 100%]
Pressure (altimeter): 29.79 inches Hg (1009.0 mb)
Winds: from the S (170 degrees) at 5 MPH (4 knots; 2.1 m/s)
Visibility: 2.61 miles (4.20 km)
Ceiling: 7600 feet AGL
Clouds: few clouds at 400 feet AGL
scattered clouds at 4800 feet AGL
overcast cloud deck at 7600 feet AGL
Weather: BR  (mist)

METAR text: LFRS 190600Z AUTO 16004KT 0650 0500 R03/0600D R21/1600U FG VV/// ///TCU 04/04 Q1009 TEMPO 4000 SHRA SCT002 SCT025 BKN060
Conditions at: LFRS (NANTES/CHATEAU B, FR) observed 0600 UTC 19 January 2019
Temperature: 4.0°C (39°F)
Dewpoint: 4.0°C (39°F) [RH = 100%]
Pressure (altimeter): 29.79 inches Hg (1009.0 mb)
Winds: from the SSE (160 degrees) at 5 MPH (4 knots; 2.1 m/s)
Visibility: 0.40 miles (0.64 km)
Ceiling: indefinite ceiling with vertical visibility of 0 feet AGL
Clouds: obscured sky
Weather: FG  (fog)

METAR text: LFRS 190530Z AUTO 17005KT 0500 0400 R03/0450N R21/0800N FG VV/// 04/04 Q1009 TEMPO 4000 SHRA BKN005
Conditions at: LFRS (NANTES/CHATEAU B, FR) observed 0530 UTC 19 January 2019
Temperature: 4.0°C (39°F)
Dewpoint: 4.0°C (39°F) [RH = 100%]
Pressure (altimeter): 29.79 inches Hg (1009.0 mb)
Winds: from the S (170 degrees) at 6 MPH (5 knots; 2.6 m/s)
Visibility: 0.31 miles (0.50 km)
Ceiling: indefinite ceiling with vertical visibility of 0 feet AGL
Clouds: obscured sky
Weather: FG  (fog)

METAR text: LFRS 190500Z AUTO 18005KT 0350 0300 R03/0325N R21/0450N FG VV/// 05/04 Q1009 TEMPO 4000 SHRA BKN005
Conditions at: LFRS (NANTES/CHATEAU B, FR) observed 0500 UTC 19 January 2019
Temperature: 5.0°C (41°F)
Dewpoint: 4.0°C (39°F) [RH = 93%]
Pressure (altimeter): 29.79 inches Hg (1009.0 mb)
Winds: from the S (180 degrees) at 6 MPH (5 knots; 2.6 m/s)
Visibility: 0.22 miles (0.35 km)
Ceiling: indefinite ceiling with vertical visibility of 0 feet AGL
Clouds: obscured sky
Weather: FG  (fog)

METAR text: LFRS 190430Z AUTO 18006KT 0450 0400 R03/0450N R21/0700D FG VV/// 05/05 Q1009 TEMPO 4000 SHRA BKN005
Conditions at: LFRS (NANTES/CHATEAU B, FR) observed 0430 UTC 19 January 2019
Temperature: 5.0°C (41°F)
Dewpoint: 5.0°C (41°F) [RH = 100%]
Pressure (altimeter): 29.79 inches Hg (1009.0 mb)
Winds: from the S (180 degrees) at 7 MPH (6 knots; 3.1 m/s)
Visibility: 0.28 miles (0.45 km)
Ceiling: indefinite ceiling with vertical visibility of 0 feet AGL
Clouds: obscured sky
Weather: FG  (fog)

METAR text: LFRS 190400Z AUTO 18006KT 0800 R03/1000N R21/0900U FG VV/// 05/05 Q1009 TEMPO 4000 SHRA BKN005
Conditions at: LFRS (NANTES/CHATEAU B, FR) observed 0400 UTC 19 January 2019
Temperature: 5.0°C (41°F)
Dewpoint: 5.0°C (41°F) [RH = 100%]
Pressure (altimeter): 29.79 inches Hg (1009.0 mb)
Winds: from the S (180 degrees) at 7 MPH (6 knots; 3.1 m/s)
Visibility: 0.50 miles (0.80 km)
Ceiling: indefinite ceiling with vertical visibility of 0 feet AGL
Clouds: obscured sky
Weather: FG  (fog)

METAR text: LFRS 190330Z AUTO 18007KT 0600 0550 R03/0600N R21/0800N FG VV/// 05/05 Q1010 TEMPO 4000 SHRA BKN005
Conditions at: LFRS (NANTES/CHATEAU B, FR) observed 0330 UTC 19 January 2019
Temperature: 5.0°C (41°F)
Dewpoint: 5.0°C (41°F) [RH = 100%]
Pressure (altimeter): 29.82 inches Hg (1010.0 mb)
Winds: from the S (180 degrees) at 8 MPH (7 knots; 3.6 m/s)
Visibility: 0.37 miles (0.60 km)
Ceiling: indefinite ceiling with vertical visibility of 0 feet AGL
Clouds: obscured sky
Weather: FG  (fog)

METAR text: LFRS 190300Z AUTO 18009KT 0600 R03/0750N R21/0700N FG VV/// 05/05 Q1010 TEMPO 4000 SHRA BKN005
Conditions at: LFRS (NANTES/CHATEAU B, FR) observed 0300 UTC 19 January 2019
Temperature: 5.0°C (41°F)
Dewpoint: 5.0°C (41°F) [RH = 100%]
Pressure (altimeter): 29.82 inches Hg (1010.0 mb)
Winds: from the S (180 degrees) at 10 MPH (9 knots; 4.6 m/s)
Visibility: 0.37 miles (0.60 km)
Ceiling: indefinite ceiling with vertical visibility of 0 feet AGL
Clouds: obscured sky
Weather: FG  (fog)

METAR text: LFRS 190230Z AUTO 18009KT 4100 BR OVC002 05/05 Q1010 TEMPO SHRA BKN005
Conditions at: LFRS (NANTES/CHATEAU B, FR) observed 0230 UTC 19 January 2019
Temperature: 5.0°C (41°F)
Dewpoint: 5.0°C (41°F) [RH = 100%]
Pressure (altimeter): 29.82 inches Hg (1010.0 mb)
Winds: from the S (180 degrees) at 10 MPH (9 knots; 4.6 m/s)
Visibility: 2.55 miles (4.10 km)
Ceiling: 200 feet AGL
Clouds: overcast cloud deck at 200 feet AGL
Weather: BR  (mist)

METAR text: LFRS 190200Z AUTO 18008KT 6000 OVC003 05/05 Q1010 TEMPO 4000 SHRA BKN005
Conditions at: LFRS (NANTES/CHATEAU B, FR) observed 0200 UTC 19 January 2019
Temperature: 5.0°C (41°F)
Dewpoint: 5.0°C (41°F) [RH = 100%]
Pressure (altimeter): 29.82 inches Hg (1010.0 mb)
Winds: from the S (180 degrees) at 9 MPH (8 knots; 4.1 m/s)
Visibility: 4 miles ( 6 km)
Ceiling: 300 feet AGL
Clouds: overcast cloud deck at 300 feet AGL
Weather: no significant weather observed at this time

METAR text: LFRS 190130Z AUTO 17009KT 7000 BKN005 OVC018 06/05 Q1010 TEMPO 4000 SHRA
Conditions at: LFRS (NANTES/CHATEAU B, FR) observed 0130 UTC 19 January 2019
Temperature: 6.0°C (43°F)
Dewpoint: 5.0°C (41°F) [RH = 93%]
Pressure (altimeter): 29.82 inches Hg (1010.0 mb)
Winds: from the S (170 degrees) at 10 MPH (9 knots; 4.6 m/s)
Visibility: 4 miles ( 7 km)
Ceiling: 500 feet AGL
Clouds: broken clouds at 500 feet AGL
overcast cloud deck at 1800 feet AGL
Weather: no significant weather observed at this time

METAR text: LFRS 190100Z AUTO 16011KT 8000 OVC005 06/05 Q1010 TEMPO 4000 SHRA
Conditions at: LFRS (NANTES/CHATEAU B, FR) observed 0100 UTC 19 January 2019
Temperature: 6.0°C (43°F)
Dewpoint: 5.0°C (41°F) [RH = 93%]
Pressure (altimeter): 29.82 inches Hg (1010.0 mb)
Winds: from the SSE (160 degrees) at 13 MPH (11 knots; 5.7 m/s)
Visibility: 5 miles ( 8 km)
Ceiling: 500 feet AGL
Clouds: overcast cloud deck at 500 feet AGL
Weather: no significant weather observed at this time

METAR text: LFRS 190030Z AUTO 16011KT 8000 OVC006/// ///TCU 06/05 Q1010 TEMPO 4000 SHRA BKN005
Conditions at: LFRS (NANTES/CHATEAU B, FR) observed 0030 UTC 19 January 2019
Temperature: 6.0°C (43°F)
Dewpoint: 5.0°C (41°F) [RH = 93%]
Pressure (altimeter): 29.82 inches Hg (1010.0 mb)
Winds: from the SSE (160 degrees) at 13 MPH (11 knots; 5.7 m/s)
Visibility: 5 miles ( 8 km)
Ceiling: 600 feet AGL
Clouds: overcast cloud deck at 600 feet AGL
Weather: no significant weather observed at this time

METAR text: LFRS 190000Z AUTO 14011KT 7000 OVC006 06/05 Q1011 TEMPO 4000 SHRA
Conditions at: LFRS (NANTES/CHATEAU B, FR) observed 0000 UTC 19 January 2019
Temperature: 6.0°C (43°F)
Dewpoint: 5.0°C (41°F) [RH = 93%]
Pressure (altimeter): 29.85 inches Hg (1011.0 mb)
Winds: from the SE (140 degrees) at 13 MPH (11 knots; 5.7 m/s)
Visibility: 4 miles ( 7 km)
Ceiling: 600 feet AGL
Clouds: overcast cloud deck at 600 feet AGL
Weather: no significant weather observed at this time

METAR text: LFRS 182330Z AUTO 15012KT 6000 -RA OVC006/// ///TCU 06/05 Q1011 TEMPO 3000 RA BKN005 BKN040
Conditions at: LFRS (NANTES/CHATEAU B, FR) observed 2330 UTC 18 January 2019
Temperature: 6.0°C (43°F)
Dewpoint: 5.0°C (41°F) [RH = 93%]
Pressure (altimeter): 29.85 inches Hg (1011.0 mb)
Winds: from the SSE (150 degrees) at 14 MPH (12 knots; 6.2 m/s)
Visibility: 4 miles ( 6 km)
Ceiling: 600 feet AGL
Clouds: overcast cloud deck at 600 feet AGL
Weather: -RA  (light rain)

METAR text: LFRS 182300Z AUTO 15010KT 9000 -DZ BKN007/// BKN029/// OVC039/// ///TCU 06/05 Q1011 TEMPO 3000 RA BKN005 BKN040
Conditions at: LFRS (NANTES/CHATEAU B, FR) observed 2300 UTC 18 January 2019
Temperature: 6.0°C (43°F)
Dewpoint: 5.0°C (41°F) [RH = 93%]
Pressure (altimeter): 29.85 inches Hg (1011.0 mb)
Winds: from the SSE (150 degrees) at 12 MPH (10 knots; 5.1 m/s)
Visibility: 6 miles ( 9 km)
Ceiling: 700 feet AGL
Clouds: broken clouds at 700 feet AGL
broken clouds at 2900 feet AGL
overcast cloud deck at 3900 feet AGL
Weather: -DZ  (light drizzle)

METAR text: LFRS 182230Z AUTO 14011KT 9000 BKN007 OVC040 06/05 Q1011 TEMPO 3000 RA
Conditions at: LFRS (NANTES/CHATEAU B, FR) observed 2230 UTC 18 January 2019
Temperature: 6.0°C (43°F)
Dewpoint: 5.0°C (41°F) [RH = 93%]
Pressure (altimeter): 29.85 inches Hg (1011.0 mb)
Winds: from the SE (140 degrees) at 13 MPH (11 knots; 5.7 m/s)
Visibility: 6 miles ( 9 km)
Ceiling: 700 feet AGL
Clouds: broken clouds at 700 feet AGL
overcast cloud deck at 4000 feet AGL
Weather: no significant weather observed at this time

METAR text: LFRS 182200Z AUTO 14011KT 9999 OVC008 06/05 Q1012 TEMPO 3000 RA
Conditions at: LFRS (NANTES/CHATEAU B, FR) observed 2200 UTC 18 January 2019
Temperature: 6.0°C (43°F)
Dewpoint: 5.0°C (41°F) [RH = 93%]
Pressure (altimeter): 29.88 inches Hg (1012.0 mb)
Winds: from the SE (140 degrees) at 13 MPH (11 knots; 5.7 m/s)
Visibility: 6 or more miles (10+ km)
Ceiling: 800 feet AGL
Clouds: overcast cloud deck at 800 feet AGL
Weather: no significant weather observed at this time

METAR text: LFRS 182130Z AUTO 14011KT 9999 SCT010/// SCT022/// BKN033/// ///CB 06/04 Q1012 TEMPO 3000 RA BKN005 BKN040
Conditions at: LFRS (NANTES/CHATEAU B, FR) observed 2130 UTC 18 January 2019
Temperature: 6.0°C (43°F)
Dewpoint: 4.0°C (39°F) [RH = 87%]
Pressure (altimeter): 29.88 inches Hg (1012.0 mb)
Winds: from the SE (140 degrees) at 13 MPH (11 knots; 5.7 m/s)
Visibility: 6 or more miles (10+ km)
Ceiling: 3300 feet AGL
Clouds: scattered clouds at 1000 feet AGL
scattered clouds at 2200 feet AGL
broken clouds at 3300 feet AGL
Weather: no significant weather observed at this time

METAR text: LFRS 182100Z AUTO 14012KT 9999 -DZ FEW034/// BKN042/// OVC058/// ///TCU 06/04 Q1012 TEMPO 3000 RA BKN005 BKN040
Conditions at: LFRS (NANTES/CHATEAU B, FR) observed 2100 UTC 18 January 2019
Temperature: 6.0°C (43°F)
Dewpoint: 4.0°C (39°F) [RH = 87%]
Pressure (altimeter): 29.88 inches Hg (1012.0 mb)
Winds: from the SE (140 degrees) at 14 MPH (12 knots; 6.2 m/s)
Visibility: 6 or more miles (10+ km)
Ceiling: 4200 feet AGL
Clouds: few clouds at 3400 feet AGL
broken clouds at 4200 feet AGL
overcast cloud deck at 5800 feet AGL
Weather: -DZ  (light drizzle)

METAR text: LFRS 182030Z AUTO 14012KT 9999 -RA FEW027/// OVC042/// ///TCU 06/04 Q1012 TEMPO 3000 RA BKN005 BKN040
Conditions at: LFRS (NANTES/CHATEAU B, FR) observed 2030 UTC 18 January 2019
Temperature: 6.0°C (43°F)
Dewpoint: 4.0°C (39°F) [RH = 87%]
Pressure (altimeter): 29.88 inches Hg (1012.0 mb)
Winds: from the SE (140 degrees) at 14 MPH (12 knots; 6.2 m/s)
Visibility: 6 or more miles (10+ km)
Ceiling: 4200 feet AGL
Clouds: few clouds at 2700 feet AGL
overcast cloud deck at 4200 feet AGL
Weather: -RA  (light rain)

METAR text: LFRS 182000Z AUTO 14011KT 9999 FEW029 OVC041 06/04 Q1012 TEMPO 3000 RA BKN005 BKN040
Conditions at: LFRS (NANTES/CHATEAU B, FR) observed 2000 UTC 18 January 2019
Temperature: 6.0°C (43°F)
Dewpoint: 4.0°C (39°F) [RH = 87%]
Pressure (altimeter): 29.88 inches Hg (1012.0 mb)
Winds: from the SE (140 degrees) at 13 MPH (11 knots; 5.7 m/s)
Visibility: 6 or more miles (10+ km)
Ceiling: 4100 feet AGL
Clouds: few clouds at 2900 feet AGL
overcast cloud deck at 4100 feet AGL
Weather: no significant weather observed at this time

METAR text: LFRS 181930Z AUTO 14012KT 9999 OVC045 06/04 Q1012 TEMPO 3000 RA BKN005 BKN040
Conditions at: LFRS (NANTES/CHATEAU B, FR) observed 1930 UTC 18 January 2019
Temperature: 6.0°C (43°F)
Dewpoint: 4.0°C (39°F) [RH = 87%]
Pressure (altimeter): 29.88 inches Hg (1012.0 mb)
Winds: from the SE (140 degrees) at 14 MPH (12 knots; 6.2 m/s)
Visibility: 6 or more miles (10+ km)
Ceiling: 4500 feet AGL
Clouds: overcast cloud deck at 4500 feet AGL
Weather: no significant weather observed at this time

METAR text: LFRS 181900Z AUTO 14010KT 9999 OVC048 06/04 Q1013 TEMPO 3000 RA BKN005 BKN040
Conditions at: LFRS (NANTES/CHATEAU B, FR) observed 1900 UTC 18 January 2019
Temperature: 6.0°C (43°F)
Dewpoint: 4.0°C (39°F) [RH = 87%]
Pressure (altimeter): 29.91 inches Hg (1013.0 mb)
Winds: from the SE (140 degrees) at 12 MPH (10 knots; 5.1 m/s)
Visibility: 6 or more miles (10+ km)
Ceiling: 4800 feet AGL
Clouds: overcast cloud deck at 4800 feet AGL
Weather: no significant weather observed at this time

METAR text: LFRS 181830Z AUTO 14011KT 9999 FEW016 BKN048 BKN054 06/03 Q1013 TEMPO 3000 RA BKN005 BKN040
Conditions at: LFRS (NANTES/CHATEAU B, FR) observed 1830 UTC 18 January 2019
Temperature: 6.0°C (43°F)
Dewpoint: 3.0°C (37°F) [RH = 81%]
Pressure (altimeter): 29.91 inches Hg (1013.0 mb)
Winds: from the SE (140 degrees) at 13 MPH (11 knots; 5.7 m/s)
Visibility: 6 or more miles (10+ km)
Ceiling: 4800 feet AGL
Clouds: few clouds at 1600 feet AGL
broken clouds at 4800 feet AGL
broken clouds at 5400 feet AGL
Weather: no significant weather observed at this time

METAR text: LFRS 181800Z AUTO 14012KT CAVOK 06/03 Q1013 BECMG BKN014
Conditions at: LFRS (NANTES/CHATEAU B, FR) observed 1800 UTC 18 January 2019
Temperature: 6.0°C (43°F)
Dewpoint: 3.0°C (37°F) [RH = 81%]
Pressure (altimeter): 29.91 inches Hg (1013.0 mb)
Winds: from the SE (140 degrees) at 14 MPH (12 knots; 6.2 m/s)
Visibility: 6 or more miles (10+ km)
Ceiling: ceiling and visibility are OK
Clouds: unknown
Weather: no significant weather observed at this time

METAR text: LFRS 181730Z AUTO 14009KT CAVOK 07/03 Q1013 BECMG BKN014
Conditions at: LFRS (NANTES/CHATEAU B, FR) observed 1730 UTC 18 January 2019
Temperature: 7.0°C (45°F)
Dewpoint: 3.0°C (37°F) [RH = 76%]
Pressure (altimeter): 29.91 inches Hg (1013.0 mb)
Winds: from the SE (140 degrees) at 10 MPH (9 knots; 4.6 m/s)
Visibility: 6 or more miles (10+ km)
Ceiling: ceiling and visibility are OK
Clouds: unknown
Weather: no significant weather observed at this time

METAR text: LFRS 181700Z AUTO 14008KT 9999 SCT020 BKN072 07/03 Q1014 BECMG BKN014
Conditions at: LFRS (NANTES/CHATEAU B, FR) observed 1700 UTC 18 January 2019
Temperature: 7.0°C (45°F)
Dewpoint: 3.0°C (37°F) [RH = 76%]
Pressure (altimeter): 29.94 inches Hg (1014.0 mb)
Winds: from the SE (140 degrees) at 9 MPH (8 knots; 4.1 m/s)
Visibility: 6 or more miles (10+ km)
Ceiling: 7200 feet AGL
Clouds: scattered clouds at 2000 feet AGL
broken clouds at 7200 feet AGL
Weather: no significant weather observed at this time

METAR text: LFRS 181630Z AUTO 14009KT 9999 FEW024 BKN074 07/03 Q1014 BECMG BKN014
Conditions at: LFRS (NANTES/CHATEAU B, FR) observed 1630 UTC 18 January 2019
Temperature: 7.0°C (45°F)
Dewpoint: 3.0°C (37°F) [RH = 76%]
Pressure (altimeter): 29.94 inches Hg (1014.0 mb)
Winds: from the SE (140 degrees) at 10 MPH (9 knots; 4.6 m/s)
Visibility: 6 or more miles (10+ km)
Ceiling: 7400 feet AGL
Clouds: few clouds at 2400 feet AGL
broken clouds at 7400 feet AGL
Weather: no significant weather observed at this time

METAR text: LFRS 181600Z AUTO 15009KT 9999 FEW026 OVC070 08/03 Q1014 BECMG BKN014
Conditions at: LFRS (NANTES/CHATEAU B, FR) observed 1600 UTC 18 January 2019
Temperature: 8.0°C (46°F)
Dewpoint: 3.0°C (37°F) [RH = 71%]
Pressure (altimeter): 29.94 inches Hg (1014.0 mb)
Winds: from the SSE (150 degrees) at 10 MPH (9 knots; 4.6 m/s)
Visibility: 6 or more miles (10+ km)
Ceiling: 7000 feet AGL
Clouds: few clouds at 2600 feet AGL
overcast cloud deck at 7000 feet AGL
Weather: no significant weather observed at this time

METAR text: LFRS 181530Z AUTO 15008KT 9999 BKN027 OVC076 08/03 Q1014 BECMG BKN014
Conditions at: LFRS (NANTES/CHATEAU B, FR) observed 1530 UTC 18 January 2019
Temperature: 8.0°C (46°F)
Dewpoint: 3.0°C (37°F) [RH = 71%]
Pressure (altimeter): 29.94 inches Hg (1014.0 mb)
Winds: from the SSE (150 degrees) at 9 MPH (8 knots; 4.1 m/s)
Visibility: 6 or more miles (10+ km)
Ceiling: 2700 feet AGL
Clouds: broken clouds at 2700 feet AGL
overcast cloud deck at 7600 feet AGL
Weather: no significant weather observed at this time

METAR text: LFRS 181500Z AUTO 14007KT 100V160 CAVOK 08/03 Q1014 NOSIG
Conditions at: LFRS (NANTES/CHATEAU B, FR) observed 1500 UTC 18 January 2019
Temperature: 8.0°C (46°F)
Dewpoint: 3.0°C (37°F) [RH = 71%]
Pressure (altimeter): 29.94 inches Hg (1014.0 mb)
Winds: from the SE (140 degrees) at 8 MPH (7 knots; 3.6 m/s)
Visibility: 6 or more miles (10+ km)
Ceiling: ceiling and visibility are OK
Clouds: unknown
Weather: no significant weather observed at this time

METAR text: LFRS 181430Z AUTO 14008KT CAVOK 08/04 Q1015 NOSIG
Conditions at: LFRS (NANTES/CHATEAU B, FR) observed 1430 UTC 18 January 2019
Temperature: 8.0°C (46°F)
Dewpoint: 4.0°C (39°F) [RH = 76%]
Pressure (altimeter): 29.97 inches Hg (1015.0 mb)
Winds: from the SE (140 degrees) at 9 MPH (8 knots; 4.1 m/s)
Visibility: 6 or more miles (10+ km)
Ceiling: ceiling and visibility are OK
Clouds: unknown
Weather: no significant weather observed at this time

METAR text: LFRS 181400Z AUTO 13008KT CAVOK 08/04 Q1015 NOSIG
Conditions at: LFRS (NANTES/CHATEAU B, FR) observed 1400 UTC 18 January 2019
Temperature: 8.0°C (46°F)
Dewpoint: 4.0°C (39°F) [RH = 76%]
Pressure (altimeter): 29.97 inches Hg (1015.0 mb)
Winds: from the SE (130 degrees) at 9 MPH (8 knots; 4.1 m/s)
Visibility: 6 or more miles (10+ km)
Ceiling: ceiling and visibility are OK
Clouds: unknown
Weather: no significant weather observed at this time

METAR text: LFRS 181330Z AUTO 13007KT CAVOK 08/03 Q1016 NOSIG
Conditions at: LFRS (NANTES/CHATEAU B, FR) observed 1330 UTC 18 January 2019
Temperature: 8.0°C (46°F)
Dewpoint: 3.0°C (37°F) [RH = 71%]
Pressure (altimeter): 30.00 inches Hg (1016.0 mb)
Winds: from the SE (130 degrees) at 8 MPH (7 knots; 3.6 m/s)
Visibility: 6 or more miles (10+ km)
Ceiling: ceiling and visibility are OK
Clouds: unknown
Weather: no significant weather observed at this time

METAR text: LFRS 181300Z AUTO 15007KT 120V180 CAVOK 08/03 Q1016 NOSIG
Conditions at: LFRS (NANTES/CHATEAU B, FR) observed 1300 UTC 18 January 2019
Temperature: 8.0°C (46°F)
Dewpoint: 3.0°C (37°F) [RH = 71%]
Pressure (altimeter): 30.00 inches Hg (1016.0 mb)
Winds: from the SSE (150 degrees) at 8 MPH (7 knots; 3.6 m/s)
Visibility: 6 or more miles (10+ km)
Ceiling: ceiling and visibility are OK
Clouds: unknown
Weather: no significant weather observed at this time

METAR text: LFRS 181230Z AUTO 14007KT CAVOK 07/03 Q1016 NOSIG
Conditions at: LFRS (NANTES/CHATEAU B, FR) observed 1230 UTC 18 January 2019
Temperature: 7.0°C (45°F)
Dewpoint: 3.0°C (37°F) [RH = 76%]
Pressure (altimeter): 30.00 inches Hg (1016.0 mb)
Winds: from the SE (140 degrees) at 8 MPH (7 knots; 3.6 m/s)
Visibility: 6 or more miles (10+ km)
Ceiling: ceiling and visibility are OK
Clouds: unknown
Weather: no significant weather observed at this time

METAR text: LFRS 181200Z AUTO 14008KT CAVOK 07/02 Q1017 NOSIG
Conditions at: LFRS (NANTES/CHATEAU B, FR) observed 1200 UTC 18 January 2019
Temperature: 7.0°C (45°F)
Dewpoint: 2.0°C (36°F) [RH = 70%]
Pressure (altimeter): 30.03 inches Hg (1017.0 mb)
Winds: from the SE (140 degrees) at 9 MPH (8 knots; 4.1 m/s)
Visibility: 6 or more miles (10+ km)
Ceiling: ceiling and visibility are OK
Clouds: unknown
Weather: no significant weather observed at this time

METAR text: LFRS 181130Z AUTO 14008KT CAVOK 06/02 Q1017 NOSIG
Conditions at: LFRS (NANTES/CHATEAU B, FR) observed 1130 UTC 18 January 2019
Temperature: 6.0°C (43°F)
Dewpoint: 2.0°C (36°F) [RH = 75%]
Pressure (altimeter): 30.03 inches Hg (1017.0 mb)
Winds: from the SE (140 degrees) at 9 MPH (8 knots; 4.1 m/s)
Visibility: 6 or more miles (10+ km)
Ceiling: ceiling and visibility are OK
Clouds: unknown
Weather: no significant weather observed at this time

METAR text: LFRS 181100Z AUTO 15007KT CAVOK 05/02 Q1018 NOSIG
Conditions at: LFRS (NANTES/CHATEAU B, FR) observed 1100 UTC 18 January 2019
Temperature: 5.0°C (41°F)
Dewpoint: 2.0°C (36°F) [RH = 81%]
Pressure (altimeter): 30.06 inches Hg (1018.0 mb)
Winds: from the SSE (150 degrees) at 8 MPH (7 knots; 3.6 m/s)
Visibility: 6 or more miles (10+ km)
Ceiling: ceiling and visibility are OK
Clouds: unknown
Weather: no significant weather observed at this time

METAR text: LFRS 181030Z AUTO 14007KT CAVOK 04/01 Q1018 NOSIG
Conditions at: LFRS (NANTES/CHATEAU B, FR) observed 1030 UTC 18 January 2019
Temperature: 4.0°C (39°F)
Dewpoint: 1.0°C (34°F) [RH = 81%]
Pressure (altimeter): 30.06 inches Hg (1018.0 mb)
Winds: from the SE (140 degrees) at 8 MPH (7 knots; 3.6 m/s)
Visibility: 6 or more miles (10+ km)
Ceiling: ceiling and visibility are OK
Clouds: unknown
Weather: no significant weather observed at this time

METAR text: LFRS 181000Z AUTO 13006KT CAVOK 02/M00 Q1018 NOSIG
Conditions at: LFRS (NANTES/CHATEAU B, FR) observed 1000 UTC 18 January 2019
Temperature: 2.0°C (36°F)
Dewpoint: 0.0°C (32°F) [RH = 87%]
Pressure (altimeter): 30.06 inches Hg (1018.0 mb)
Winds: from the SE (130 degrees) at 7 MPH (6 knots; 3.1 m/s)
Visibility: 6 or more miles (10+ km)
Ceiling: ceiling and visibility are OK
Clouds: unknown
Weather: no significant weather observed at this time

METAR text: LFRS 180930Z AUTO 14006KT CAVOK 02/M01 Q1018 NOSIG
Conditions at: LFRS (NANTES/CHATEAU B, FR) observed 0930 UTC 18 January 2019
Temperature: 2.0°C (36°F)
Dewpoint: -1.0°C (30°F) [RH = 80%]
Pressure (altimeter): 30.06 inches Hg (1018.0 mb)
Winds: from the SE (140 degrees) at 7 MPH (6 knots; 3.1 m/s)
Visibility: 6 or more miles (10+ km)
Ceiling: ceiling and visibility are OK
Clouds: unknown
Weather: no significant weather observed at this time

METAR text: LFRS 180900Z AUTO 11004KT CAVOK 01/M02 Q1018 NOSIG
Conditions at: LFRS (NANTES/CHATEAU B, FR) observed 0900 UTC 18 January 2019
Temperature: 1.0°C (34°F)
Dewpoint: -2.0°C (28°F) [RH = 80%]
Pressure (altimeter): 30.06 inches Hg (1018.0 mb)
Winds: from the ESE (110 degrees) at 5 MPH (4 knots; 2.1 m/s)
Visibility: 6 or more miles (10+ km)
Ceiling: ceiling and visibility are OK
Clouds: unknown
Weather: no significant weather observed at this time

METAR text: LFRS 180830Z AUTO 11005KT CAVOK 01/M02 Q1018 NOSIG
Conditions at: LFRS (NANTES/CHATEAU B, FR) observed 0830 UTC 18 January 2019
Temperature: 1.0°C (34°F)
Dewpoint: -2.0°C (28°F) [RH = 80%]
Pressure (altimeter): 30.06 inches Hg (1018.0 mb)
Winds: from the ESE (110 degrees) at 6 MPH (5 knots; 2.6 m/s)
Visibility: 6 or more miles (10+ km)
Ceiling: ceiling and visibility are OK
Clouds: unknown
Weather: no significant weather observed at this time

METAR text: LFRS 180800Z AUTO 11003KT 080V140 CAVOK 01/M02 Q1018 NOSIG
Conditions at: LFRS (NANTES/CHATEAU B, FR) observed 0800 UTC 18 January 2019
Temperature: 1.0°C (34°F)
Dewpoint: -2.0°C (28°F) [RH = 80%]
Pressure (altimeter): 30.06 inches Hg (1018.0 mb)
Winds: from the ESE (110 degrees) at 3 MPH (3 knots; 1.5 m/s)
Visibility: 6 or more miles (10+ km)
Ceiling: ceiling and visibility are OK
Clouds: unknown
Weather: no significant weather observed at this time

METAR text: LFRS 180730Z AUTO 11004KT 080V140 CAVOK 01/M02 Q1018 NOSIG
Conditions at: LFRS (NANTES/CHATEAU B, FR) observed 0730 UTC 18 January 2019
Temperature: 1.0°C (34°F)
Dewpoint: -2.0°C (28°F) [RH = 80%]
Pressure (altimeter): 30.06 inches Hg (1018.0 mb)
Winds: from the ESE (110 degrees) at 5 MPH (4 knots; 2.1 m/s)
Visibility: 6 or more miles (10+ km)
Ceiling: ceiling and visibility are OK
Clouds: unknown
Weather: no significant weather observed at this time

METAR text: LFRS 180700Z AUTO 11003KT 080V150 CAVOK 01/M02 Q1018 NOSIG
Conditions at: LFRS (NANTES/CHATEAU B, FR) observed 0700 UTC 18 January 2019
Temperature: 1.0°C (34°F)
Dewpoint: -2.0°C (28°F) [RH = 80%]
Pressure (altimeter): 30.06 inches Hg (1018.0 mb)
Winds: from the ESE (110 degrees) at 3 MPH (3 knots; 1.5 m/s)
Visibility: 6 or more miles (10+ km)
Ceiling: ceiling and visibility are OK
Clouds: unknown
Weather: no significant weather observed at this time

METAR text: LFRS 180630Z AUTO 12004KT 9999 FEW034 BKN130 OVC190 01/M01 Q1018 NOSIG
Conditions at: LFRS (NANTES/CHATEAU B, FR) observed 0630 UTC 18 January 2019
Temperature: 1.0°C (34°F)
Dewpoint: -1.0°C (30°F) [RH = 86%]
Pressure (altimeter): 30.06 inches Hg (1018.0 mb)
Winds: from the ESE (120 degrees) at 5 MPH (4 knots; 2.1 m/s)
Visibility: 6 or more miles (10+ km)
Ceiling: 13000 feet AGL
Clouds: few clouds at 3400 feet AGL
broken clouds at 13000 feet AGL
overcast cloud deck at 19000 feet AGL
Weather: no significant weather observed at this time

METAR text: LFRS 180600Z AUTO 09004KT 9999 FEW031 OVC130 01/M01 Q1018 NOSIG
Conditions at: LFRS (NANTES/CHATEAU B, FR) observed 0600 UTC 18 January 2019
Temperature: 1.0°C (34°F)
Dewpoint: -1.0°C (30°F) [RH = 86%]
Pressure (altimeter): 30.06 inches Hg (1018.0 mb)
Winds: from the E (90 degrees) at 5 MPH (4 knots; 2.1 m/s)
Visibility: 6 or more miles (10+ km)
Ceiling: 13000 feet AGL
Clouds: few clouds at 3100 feet AGL
overcast cloud deck at 13000 feet AGL
Weather: no significant weather observed at this time

METAR text: LFRS 180530Z AUTO 10006KT 9999 FEW031 OVC130 01/M01 Q1018 NOSIG
Conditions at: LFRS (NANTES/CHATEAU B, FR) observed 0530 UTC 18 January 2019
Temperature: 1.0°C (34°F)
Dewpoint: -1.0°C (30°F) [RH = 86%]
Pressure (altimeter): 30.06 inches Hg (1018.0 mb)
Winds: from the E (100 degrees) at 7 MPH (6 knots; 3.1 m/s)
Visibility: 6 or more miles (10+ km)
Ceiling: 13000 feet AGL
Clouds: few clouds at 3100 feet AGL
overcast cloud deck at 13000 feet AGL
Weather: no significant weather observed at this time

METAR text: LFRS 180500Z AUTO 09006KT 9999 FEW032 BKN150 BKN170 02/M01 Q1019 NOSIG
Conditions at: LFRS (NANTES/CHATEAU B, FR) observed 0500 UTC 18 January 2019
Temperature: 2.0°C (36°F)
Dewpoint: -1.0°C (30°F) [RH = 80%]
Pressure (altimeter): 30.09 inches Hg (1019.0 mb)
Winds: from the E (90 degrees) at 7 MPH (6 knots; 3.1 m/s)
Visibility: 6 or more miles (10+ km)
Ceiling: 15000 feet AGL
Clouds: few clouds at 3200 feet AGL
broken clouds at 15000 feet AGL
broken clouds at 17000 feet AGL
Weather: no significant weather observed at this time

METAR text: LFRS 180430Z AUTO 07005KT 9999 SCT028 BKN180 BKN210 01/M01 Q1019 NOSIG
Conditions at: LFRS (NANTES/CHATEAU B, FR) observed 0430 UTC 18 January 2019
Temperature: 1.0°C (34°F)
Dewpoint: -1.0°C (30°F) [RH = 86%]
Pressure (altimeter): 30.09 inches Hg (1019.0 mb)
Winds: from the ENE (70 degrees) at 6 MPH (5 knots; 2.6 m/s)
Visibility: 6 or more miles (10+ km)
Ceiling: 18000 feet AGL
Clouds: scattered clouds at 2800 feet AGL
broken clouds at 18000 feet AGL
broken clouds at 21000 feet AGL
Weather: no significant weather observed at this time

METAR text: LFRS 180400Z AUTO 05003KT 9999 FEW026 SCT210 01/M01 Q1019 NOSIG
Conditions at: LFRS (NANTES/CHATEAU B, FR) observed 0400 UTC 18 January 2019
Temperature: 1.0°C (34°F)
Dewpoint: -1.0°C (30°F) [RH = 86%]
Pressure (altimeter): 30.09 inches Hg (1019.0 mb)
Winds: from the NE (50 degrees) at 3 MPH (3 knots; 1.5 m/s)
Visibility: 6 or more miles (10+ km)
Ceiling: at least 12,000 feet AGL
Clouds: few clouds at 2600 feet AGL
scattered clouds at 21000 feet AGL
Weather: no significant weather observed at this time

METAR text: LFRS 180330Z AUTO 07003KT 040V100 CAVOK 02/M00 Q1020 NOSIG
Conditions at: LFRS (NANTES/CHATEAU B, FR) observed 0330 UTC 18 January 2019
Temperature: 2.0°C (36°F)
Dewpoint: 0.0°C (32°F) [RH = 87%]
Pressure (altimeter): 30.12 inches Hg (1020.0 mb)
Winds: from the ENE (70 degrees) at 3 MPH (3 knots; 1.5 m/s)
Visibility: 6 or more miles (10+ km)
Ceiling: ceiling and visibility are OK
Clouds: unknown
Weather: no significant weather observed at this time

METAR text: LFRS 180300Z AUTO 10004KT CAVOK 02/M00 Q1019 NOSIG
Conditions at: LFRS (NANTES/CHATEAU B, FR) observed 0300 UTC 18 January 2019
Temperature: 2.0°C (36°F)
Dewpoint: 0.0°C (32°F) [RH = 87%]
Pressure (altimeter): 30.09 inches Hg (1019.0 mb)
Winds: from the E (100 degrees) at 5 MPH (4 knots; 2.1 m/s)
Visibility: 6 or more miles (10+ km)
Ceiling: ceiling and visibility are OK
Clouds: unknown
Weather: no significant weather observed at this time

METAR text: LFRS 180230Z AUTO 08003KT 040V110 CAVOK 02/00 Q1020 NOSIG
Conditions at: LFRS (NANTES/CHATEAU B, FR) observed 0230 UTC 18 January 2019
Temperature: 2.0°C (36°F)
Dewpoint: 0.0°C (32°F) [RH = 87%]
Pressure (altimeter): 30.12 inches Hg (1020.0 mb)
Winds: from the E (80 degrees) at 3 MPH (3 knots; 1.5 m/s)
Visibility: 6 or more miles (10+ km)
Ceiling: ceiling and visibility are OK
Clouds: unknown
Weather: no significant weather observed at this time

Forecast for: AMD
Text: TAF AMD LFRS 191301Z 1913/2018 19006KT 9999 BKN020 BKN050
Forecast period: 1300 to 1900 UTC 19 January 2019
Forecast type: FROM: standard forecast or significant change
Winds: from the S (190 degrees) at 7 MPH (6 knots; 3.1 m/s)
Visibility: 6 or more miles 10+ km)
Ceiling: 2000 feet AGL
Clouds: broken clouds at 2000 feet AGL
broken clouds at 5000 feet AGL
Weather: no significant weather forecast for this period
Text: TEMPO 1913/1921 4000 SHRA BKN018CB
Forecast period: 1300 to 2100 UTC 19 January 2019
Forecast type: TEMPORARY: The following changes expected for less than half the time period
Visibility: 2.49 miles (4.01 km)
Ceiling: 1800 feet AGL
Clouds: broken clouds at 1800 feet AGL
Weather: SHRA  (rain showers)
Text: BECMG 1919/1921 3000 BR
Forecast period: 1900 UTC 19 January 2019 to 1000 UTC 20 January 2019
Forecast type: BECOMING: Conditions expected to become as follows by 2100 UTC 19 January 2019
Winds: from the S (190 degrees) at 7 MPH (6 knots; 3.1 m/s)
Visibility: 1.86 miles (2.99 km)
Ceiling: 2000 feet AGL
Clouds: broken clouds at 2000 feet AGL
broken clouds at 5000 feet AGL
Weather: BR  (mist)
Text: TEMPO 1921/2009 0500 FG VV///
Forecast period: 2100 UTC 19 January 2019 to 0900 UTC 20 January 2019
Forecast type: TEMPORARY: The following changes expected for less than half the time period
Visibility: 0.31 miles (0.50 km)
Ceiling: unknown
Clouds: missing
Weather: FG  (fog)
Text: BECMG 2010/2012 36008KT 9999 NSW SCT008 BKN020
Forecast period: 1000 to 1800 UTC 20 January 2019
Forecast type: BECOMING: Conditions expected to become as follows by 1200 UTC 20 January 2019
Winds: from the N (360 degrees) at 9 MPH (8 knots; 4.1 m/s)
Visibility: 6 or more miles 10+ km)
Ceiling: 2000 feet AGL
Clouds: scattered clouds at 800 feet AGL
broken clouds at 2000 feet AGL
Weather: NSW  (no significant weather)
Text: TEMPO 2014/2018 -SHRA
Forecast period: 1400 to 1800 UTC 20 January 2019
Forecast type: TEMPORARY: The following changes expected for less than half the time period
Visibility: missing
Ceiling: unknown
Clouds: missing
Weather: -SHRA  (light rain showers)